createdAt,value
2014-07-25T00:00:01.503Z,99664
2014-07-25T00:00:19.724Z,99669
2014-07-25T00:00:38.130Z,99675
2014-07-25T00:00:56.349Z,99672
2014-07-25T00:01:14.599Z,99661
2014-07-25T00:01:32.788Z,99669
2014-07-25T00:01:51.054Z,99661
2014-07-25T00:02:09.241Z,99667
2014-07-25T00:02:27.478Z,99667
2014-07-25T00:02:45.853Z,99664
2014-07-25T00:03:04.072Z,99669
2014-07-25T00:03:22.308Z,99669
2014-07-25T00:03:40.558Z,99664
2014-07-25T00:03:59.105Z,99655
2014-07-25T00:04:17.339Z,99658
2014-07-25T00:04:35.560Z,99658
2014-07-25T00:04:53.794Z,99669
2014-07-25T00:05:12.326Z,99664
2014-07-25T00:05:30.609Z,99664
2014-07-25T00:06:03.015Z,99669
2014-07-25T00:06:21.249Z,99664
2014-07-25T00:06:39.517Z,99655
2014-07-25T00:06:57.736Z,99661
2014-07-25T00:07:16.126Z,99655
2014-07-25T00:07:34.362Z,99655
2014-07-25T00:07:52.596Z,99652
2014-07-25T00:08:10.815Z,99647
2014-07-25T00:08:29.052Z,99661
2014-07-25T00:08:47.318Z,99658
2014-07-25T00:09:05.552Z,99664
2014-07-25T00:09:23.896Z,99655
2014-07-25T00:09:42.086Z,99655
2014-07-25T00:10:00.336Z,99664
2014-07-25T00:10:32.713Z,99667
2014-07-25T00:10:51.041Z,99658
2014-07-25T00:11:09.244Z,99652
2014-07-25T00:11:27.527Z,99655
2014-07-25T00:11:45.777Z,99649
2014-07-25T00:12:03.980Z,99655
2014-07-25T00:12:22.215Z,99649
2014-07-25T00:12:40.606Z,99658
2014-07-25T00:12:58.794Z,99652
2014-07-25T00:13:17.028Z,99655
2014-07-25T00:13:35.218Z,99661
2014-07-25T00:13:53.452Z,99655
2014-07-25T00:14:11.702Z,99655
2014-07-25T00:14:29.938Z,99652
2014-07-25T00:14:48.407Z,99649
2014-07-25T00:15:06.626Z,99649
2014-07-25T00:15:24.876Z,99647
2014-07-25T00:15:43.097Z,99647
2014-07-25T00:16:01.456Z,99641
2014-07-25T00:16:19.675Z,99647
2014-07-25T00:16:37.927Z,99655
2014-07-25T00:16:56.130Z,99655
2014-07-25T00:17:14.630Z,99644
2014-07-25T00:17:32.852Z,99649
2014-07-25T00:17:51.102Z,99647
2014-07-25T00:18:09.305Z,99649
2014-07-25T00:18:27.664Z,99647
2014-07-25T00:18:45.900Z,99649
2014-07-25T00:19:04.104Z,99658
2014-07-25T00:19:22.338Z,99644
2014-07-25T00:19:54.714Z,99647
2014-07-25T00:20:12.964Z,99649
2014-07-25T00:20:31.261Z,99655
2014-07-25T00:20:49.403Z,99647
2014-07-25T00:21:07.607Z,99652
2014-07-25T00:21:26.044Z,99655
2014-07-25T00:21:44.265Z,99652
2014-07-25T00:22:02.468Z,99644
2014-07-25T00:22:20.687Z,99652
2014-07-25T00:22:39.267Z,99647
2014-07-25T00:22:57.501Z,99644
2014-07-25T00:23:15.720Z,99655
2014-07-25T00:23:34.001Z,99647
2014-07-25T00:23:52.550Z,99658
2014-07-25T00:24:10.769Z,99652
2014-07-25T00:24:28.988Z,99655
2014-07-25T00:24:47.208Z,99658
2014-07-25T00:25:05.568Z,99658
2014-07-25T00:25:23.943Z,99661
2014-07-25T00:25:42.163Z,99655
2014-07-25T00:26:00.382Z,99655
2014-07-25T00:26:32.757Z,99652
2014-07-25T00:26:51.009Z,99652
2014-07-25T00:27:09.259Z,99647
2014-07-25T00:27:42.338Z,99658
2014-07-25T00:28:00.573Z,99655
2014-07-25T00:28:51.169Z,99644
2014-07-25T00:29:09.419Z,99644
2014-07-25T00:29:27.638Z,99644
2014-07-25T00:29:45.859Z,99644
2014-07-25T00:30:04.078Z,99644
2014-07-25T00:30:22.328Z,99649
2014-07-25T00:30:40.533Z,99636
2014-07-25T00:30:58.752Z,99644
2014-07-25T00:31:16.970Z,99655
2014-07-25T00:31:35.220Z,99644
2014-07-25T00:31:53.441Z,99644
2014-07-25T00:32:11.644Z,99638
2014-07-25T00:32:29.863Z,99638
2014-07-25T00:32:48.099Z,99644
2014-07-25T00:33:06.334Z,99644
2014-07-25T00:33:24.537Z,99641
2014-07-25T00:33:42.788Z,99644
2014-07-25T00:34:01.022Z,99647
2014-07-25T00:34:19.241Z,99647
2014-07-25T00:34:37.444Z,99638
2014-07-25T00:34:55.681Z,99638
2014-07-25T00:35:13.900Z,99641
2014-07-25T00:35:32.119Z,99638
2014-07-25T00:35:50.371Z,99644
2014-07-25T00:36:08.574Z,99638
2014-07-25T00:36:26.824Z,99638
2014-07-25T00:36:45.044Z,99647
2014-07-25T00:37:03.247Z,99638
2014-07-25T00:37:21.466Z,99638
2014-07-25T00:37:39.700Z,99644
2014-07-25T00:37:57.905Z,99647
2014-07-25T00:38:16.155Z,99649
2014-07-25T00:38:34.374Z,99644
2014-07-25T00:38:52.610Z,99641
2014-07-25T00:39:10.845Z,99636
2014-07-25T00:39:29.079Z,99649
2014-07-25T00:39:47.347Z,99641
2014-07-25T00:40:05.550Z,99633
2014-07-25T00:40:23.784Z,99638
2014-07-25T00:40:42.003Z,99644
2014-07-25T00:41:00.224Z,99636
2014-07-25T00:41:18.474Z,99647
2014-07-25T00:41:36.692Z,99641
2014-07-25T00:41:54.929Z,99638
2014-07-25T00:42:13.132Z,99636
2014-07-25T00:42:31.382Z,99644
2014-07-25T00:42:49.587Z,99638
2014-07-25T00:43:07.821Z,99636
2014-07-25T00:43:26.040Z,99641
2014-07-25T00:43:44.243Z,99638
2014-07-25T00:44:02.510Z,99644
2014-07-25T00:44:20.697Z,99636
2014-07-25T00:44:38.932Z,99638
2014-07-25T00:44:57.185Z,99638
2014-07-25T00:45:15.419Z,99641
2014-07-25T00:45:33.638Z,99636
2014-07-25T00:45:51.874Z,99644
2014-07-25T00:46:10.124Z,99641
2014-07-25T00:46:28.359Z,99638
2014-07-25T00:46:46.577Z,99644
2014-07-25T00:47:04.767Z,99638
2014-07-25T00:47:23.017Z,99633
2014-07-25T00:47:41.236Z,99644
2014-07-25T00:47:59.440Z,99644
2014-07-25T00:48:17.659Z,99641
2014-07-25T00:48:35.909Z,99644
2014-07-25T00:48:54.130Z,99638
2014-07-25T00:49:26.568Z,99647
2014-07-25T00:49:44.771Z,99644
2014-07-25T00:50:03.006Z,99641
2014-07-25T00:50:21.303Z,99647
2014-07-25T00:50:39.491Z,99647
2014-07-25T00:50:57.741Z,99658
2014-07-25T00:51:15.947Z,99652
2014-07-25T00:51:34.181Z,99647
2014-07-25T00:51:52.400Z,99649
2014-07-25T00:52:10.652Z,99641
2014-07-25T00:52:28.886Z,99644
2014-07-25T00:52:47.105Z,99647
2014-07-25T00:53:05.295Z,99655
2014-07-25T00:53:23.545Z,99649
2014-07-25T00:53:41.779Z,99641
2014-07-25T00:53:59.984Z,99636
2014-07-25T00:54:18.187Z,99639
2014-07-25T00:54:36.437Z,99641
2014-07-25T00:54:54.656Z,99649
2014-07-25T00:55:12.891Z,99641
2014-07-25T00:55:31.110Z,99641
2014-07-25T00:55:49.344Z,99641
2014-07-25T00:56:07.566Z,99639
2014-07-25T00:56:25.769Z,99647
2014-07-25T00:56:43.988Z,99647
2014-07-25T00:57:02.240Z,99649
2014-07-25T00:57:20.459Z,99641
2014-07-25T00:57:52.849Z,99644
2014-07-25T00:58:11.100Z,99641
2014-07-25T00:58:43.507Z,99644
2014-07-25T00:59:01.710Z,99639
2014-07-25T00:59:34.118Z,99633
2014-07-25T00:59:52.337Z,99639
2014-07-25T01:00:10.589Z,99647
2014-07-25T01:00:28.808Z,99641
2014-07-25T01:00:47.011Z,99641
2014-07-25T01:01:05.247Z,99647
2014-07-25T01:01:23.466Z,99636
2014-07-25T01:01:41.685Z,99636
2014-07-25T01:01:59.919Z,99639
2014-07-25T01:02:18.155Z,99644
2014-07-25T01:02:36.390Z,99636
2014-07-25T01:02:54.608Z,99633
2014-07-25T01:03:12.828Z,99630
2014-07-25T01:03:31.063Z,99641
2014-07-25T01:03:49.313Z,99644
2014-07-25T01:04:07.533Z,99638
2014-07-25T01:04:25.736Z,99633
2014-07-25T01:04:43.986Z,99636
2014-07-25T01:05:02.221Z,99636
2014-07-25T01:05:20.411Z,99641
2014-07-25T01:05:38.646Z,99633
2014-07-25T01:05:56.880Z,99630
2014-07-25T01:06:15.116Z,99627
2014-07-25T01:06:33.320Z,99636
2014-07-25T01:06:51.554Z,99636
2014-07-25T01:07:09.789Z,99633
2014-07-25T01:07:28.024Z,99633
2014-07-25T01:07:46.227Z,99636
2014-07-25T01:08:04.446Z,99633
2014-07-25T01:08:22.682Z,99630
2014-07-25T01:08:40.916Z,99633
2014-07-25T01:08:59.135Z,99633
2014-07-25T01:09:17.356Z,99624
2014-07-25T01:09:35.590Z,99630
2014-07-25T01:09:53.793Z,99636
2014-07-25T01:10:12.014Z,99624
2014-07-25T01:10:30.248Z,99624
2014-07-25T01:10:48.483Z,99630
2014-07-25T01:11:06.733Z,99633
2014-07-25T01:11:24.922Z,99639
2014-07-25T01:11:43.172Z,99633
2014-07-25T01:12:01.407Z,99633
2014-07-25T01:12:19.643Z,99621
2014-07-25T01:12:37.877Z,99636
2014-07-25T01:12:56.096Z,99627
2014-07-25T01:13:14.333Z,99627
2014-07-25T01:13:32.536Z,99624
2014-07-25T01:13:50.754Z,99630
2014-07-25T01:14:08.989Z,99630
2014-07-25T01:14:27.225Z,99624
2014-07-25T01:14:45.460Z,99624
2014-07-25T01:15:03.647Z,99630
2014-07-25T01:15:21.869Z,99636
2014-07-25T01:15:40.119Z,99630
2014-07-25T01:15:58.353Z,99624
2014-07-25T01:16:16.557Z,99624
2014-07-25T01:16:34.807Z,99621
2014-07-25T01:16:53.010Z,99621
2014-07-25T01:17:11.276Z,99621
2014-07-25T01:17:29.497Z,99621
2014-07-25T01:17:47.684Z,99624
2014-07-25T01:18:05.934Z,99624
2014-07-25T01:18:24.124Z,99627
2014-07-25T01:18:42.389Z,99618
2014-07-25T01:19:00.593Z,99618
2014-07-25T01:19:18.829Z,99624
2014-07-25T01:19:37.048Z,99621
2014-07-25T01:19:55.235Z,99621
2014-07-25T01:20:13.470Z,99615
2014-07-25T01:20:31.690Z,99624
2014-07-25T01:20:49.909Z,99621
2014-07-25T01:21:08.159Z,99618
2014-07-25T01:21:26.379Z,99612
2014-07-25T01:21:44.629Z,99627
2014-07-25T01:22:02.848Z,99621
2014-07-25T01:22:21.038Z,99615
2014-07-25T01:22:39.288Z,99621
2014-07-25T01:22:57.491Z,99618
2014-07-25T01:23:15.741Z,99615
2014-07-25T01:23:33.961Z,99618
2014-07-25T01:23:52.195Z,99618
2014-07-25T01:24:10.398Z,99615
2014-07-25T01:24:28.635Z,99618
2014-07-25T01:24:46.885Z,99621
2014-07-25T01:25:05.119Z,99615
2014-07-25T01:25:23.325Z,99621
2014-07-25T01:25:41.560Z,99604
2014-07-25T01:25:59.794Z,99615
2014-07-25T01:26:18.013Z,99615
2014-07-25T01:26:36.218Z,99615
2014-07-25T01:26:54.452Z,99624
2014-07-25T01:27:12.702Z,99609
2014-07-25T01:27:30.939Z,99612
2014-07-25T01:27:49.142Z,99618
2014-07-25T01:28:07.595Z,99618
2014-07-25T01:28:25.847Z,99618
2014-07-25T01:28:44.066Z,99618
2014-07-25T01:29:02.269Z,99627
2014-07-25T01:29:20.488Z,99609
2014-07-25T01:29:38.724Z,99612
2014-07-25T01:29:56.958Z,99615
2014-07-25T01:30:15.193Z,99612
2014-07-25T01:30:33.397Z,99618
2014-07-25T01:30:51.631Z,99621
2014-07-25T01:31:09.834Z,99618
2014-07-25T01:31:28.055Z,99618
2014-07-25T01:31:46.305Z,99618
2014-07-25T01:32:04.524Z,99607
2014-07-25T01:32:22.743Z,99618
2014-07-25T01:32:40.963Z,99612
2014-07-25T01:32:59.182Z,99615
2014-07-25T01:33:17.432Z,99612
2014-07-25T01:33:35.637Z,99607
2014-07-25T01:33:53.856Z,99612
2014-07-25T01:34:12.090Z,99615
2014-07-25T01:34:30.327Z,99609
2014-07-25T01:34:48.545Z,99607
2014-07-25T01:35:06.780Z,99618
2014-07-25T01:35:25.014Z,99618
2014-07-25T01:35:43.235Z,99618
2014-07-25T01:36:01.454Z,99615
2014-07-25T01:36:19.657Z,99612
2014-07-25T01:36:37.893Z,99618
2014-07-25T01:36:56.143Z,99612
2014-07-25T01:37:14.362Z,99621
2014-07-25T01:37:32.629Z,99618
2014-07-25T01:37:50.863Z,99612
2014-07-25T01:38:09.082Z,99618
2014-07-25T01:38:27.332Z,99618
2014-07-25T01:38:45.569Z,99609
2014-07-25T01:39:03.819Z,99607
2014-07-25T01:39:22.038Z,99607
2014-07-25T01:39:40.227Z,99612
2014-07-25T01:39:58.477Z,99618
2014-07-25T01:40:30.837Z,99612
2014-07-25T01:40:49.057Z,99607
2014-07-25T01:41:07.307Z,99624
2014-07-25T01:41:25.573Z,99612
2014-07-25T01:41:43.809Z,99612
2014-07-25T01:42:02.044Z,99609
2014-07-25T01:42:20.263Z,99612
2014-07-25T01:42:38.468Z,99609
2014-07-25T01:42:56.702Z,99612
2014-07-25T01:43:14.890Z,99601
2014-07-25T01:43:33.125Z,99612
2014-07-25T01:43:51.359Z,99621
2014-07-25T01:44:09.578Z,99615
2014-07-25T01:44:27.812Z,99612
2014-07-25T01:45:18.409Z,99621
2014-07-25T01:45:36.645Z,99604
2014-07-25T01:45:54.863Z,99615
2014-07-25T01:46:13.098Z,99615
2014-07-25T01:46:31.301Z,99609
2014-07-25T01:46:49.553Z,99609
2014-07-25T01:47:07.756Z,99612
2014-07-25T01:47:26.006Z,99615
2014-07-25T01:47:44.227Z,99615
2014-07-25T01:48:02.430Z,99612
2014-07-25T01:48:20.680Z,99618
2014-07-25T01:48:38.917Z,99618
2014-07-25T01:48:57.105Z,99615
2014-07-25T01:49:15.370Z,99612
2014-07-25T01:49:33.620Z,99618
2014-07-25T01:49:51.856Z,99618
2014-07-25T01:50:10.059Z,99621
2014-07-25T01:50:28.278Z,99624
2014-07-25T01:50:46.515Z,99612
2014-07-25T01:51:04.749Z,99618
2014-07-25T01:51:22.937Z,99612
2014-07-25T01:51:41.172Z,99612
2014-07-25T01:51:59.407Z,99615
2014-07-25T01:52:17.641Z,99612
2014-07-25T01:52:35.844Z,99621
2014-07-25T01:52:54.065Z,99621
2014-07-25T01:53:12.315Z,99609
2014-07-25T01:53:30.518Z,99601
2014-07-25T01:53:48.739Z,99612
2014-07-25T01:54:07.004Z,99612
2014-07-25T01:54:25.207Z,99609
2014-07-25T01:54:43.428Z,99609
2014-07-25T01:55:01.663Z,99612
2014-07-25T01:55:19.881Z,99612
2014-07-25T01:55:38.084Z,99604
2014-07-25T01:55:56.321Z,99609
2014-07-25T01:56:14.524Z,99615
2014-07-25T01:56:32.790Z,99604
2014-07-25T01:56:50.995Z,99612
2014-07-25T01:57:09.245Z,99612
2014-07-25T01:57:27.479Z,99612
2014-07-25T01:57:45.684Z,99615
2014-07-25T01:58:03.903Z,99612
2014-07-25T01:58:22.169Z,99609
2014-07-25T01:58:54.639Z,99607
2014-07-25T01:59:12.858Z,99612
2014-07-25T01:59:31.061Z,99612
2014-07-25T01:59:49.281Z,99609
2014-07-25T02:00:07.531Z,99604
2014-07-25T02:00:25.765Z,99604
2014-07-25T02:00:44.000Z,99618
2014-07-25T02:01:02.190Z,99618
2014-07-25T02:01:20.440Z,99601
2014-07-25T02:01:38.675Z,99618
2014-07-25T02:01:56.926Z,99621
2014-07-25T02:02:15.144Z,99604
2014-07-25T02:02:33.347Z,99609
2014-07-25T02:02:51.585Z,99609
2014-07-25T02:03:09.804Z,99612
2014-07-25T02:03:28.054Z,99601
2014-07-25T02:04:00.415Z,99621
2014-07-25T02:04:33.556Z,99609
2014-07-25T02:04:51.776Z,99618
2014-07-25T02:05:10.026Z,99612
2014-07-25T02:05:28.292Z,99607
2014-07-25T02:05:46.511Z,99604
2014-07-25T02:06:04.730Z,99607
2014-07-25T02:06:22.965Z,99612
2014-07-25T02:06:41.215Z,99612
2014-07-25T02:06:59.404Z,99604
2014-07-25T02:07:17.654Z,99615
2014-07-25T02:07:35.873Z,99612
2014-07-25T02:07:54.095Z,99612
2014-07-25T02:08:12.314Z,99612
2014-07-25T02:08:30.532Z,99612
2014-07-25T02:08:48.798Z,99609
2014-07-25T02:09:07.018Z,99612
2014-07-25T02:09:25.205Z,99607
2014-07-25T02:09:43.424Z,99609
2014-07-25T02:10:01.661Z,99601
2014-07-25T02:10:34.818Z,99601
2014-07-25T02:10:53.036Z,99612
2014-07-25T02:11:11.240Z,99604
2014-07-25T02:11:29.459Z,99601
2014-07-25T02:11:47.725Z,99601
2014-07-25T02:12:05.946Z,99595
2014-07-25T02:12:24.133Z,99601
2014-07-25T02:12:42.367Z,99607
2014-07-25T02:13:00.588Z,99604
2014-07-25T02:13:18.854Z,99604
2014-07-25T02:13:37.057Z,99604
2014-07-25T02:13:55.307Z,99604
2014-07-25T02:14:13.528Z,99615
2014-07-25T02:14:31.746Z,99607
2014-07-25T02:14:49.965Z,99612
2014-07-25T02:15:08.186Z,99615
2014-07-25T02:15:26.436Z,99607
2014-07-25T02:15:44.655Z,99612
2014-07-25T02:16:02.844Z,99618
2014-07-25T02:16:21.079Z,99609
2014-07-25T02:16:39.313Z,99609
2014-07-25T02:17:12.456Z,99609
2014-07-25T02:17:30.690Z,99609
2014-07-25T02:17:48.909Z,99612
2014-07-25T02:18:07.128Z,99621
2014-07-25T02:18:25.363Z,99604
2014-07-25T02:18:43.566Z,99607
2014-07-25T02:19:01.787Z,99615
2014-07-25T02:19:19.990Z,99609
2014-07-25T02:19:38.240Z,99615
2014-07-25T02:19:56.490Z,99612
2014-07-25T02:20:14.711Z,99615
2014-07-25T02:20:47.070Z,99615
2014-07-25T02:21:05.292Z,99615
2014-07-25T02:21:23.542Z,99615
2014-07-25T02:21:41.760Z,99615
2014-07-25T02:21:59.964Z,99612
2014-07-25T02:22:18.199Z,99615
2014-07-25T02:22:36.433Z,99621
2014-07-25T02:22:54.652Z,99612
2014-07-25T02:23:12.857Z,99621
2014-07-25T02:23:31.092Z,99615
2014-07-25T02:23:49.342Z,99630
2014-07-25T02:24:07.563Z,99615
2014-07-25T02:24:25.766Z,99609
2014-07-25T02:24:43.985Z,99612
2014-07-25T02:25:02.235Z,99627
2014-07-25T02:25:20.456Z,99621
2014-07-25T02:25:38.722Z,99618
2014-07-25T02:25:56.956Z,99621
2014-07-25T02:26:15.160Z,99618
2014-07-25T02:26:33.410Z,99615
2014-07-25T02:26:51.613Z,99621
2014-07-25T02:27:09.850Z,99615
2014-07-25T02:27:28.084Z,99610
2014-07-25T02:27:46.287Z,99615
2014-07-25T02:28:04.521Z,99624
2014-07-25T02:28:22.758Z,99609
2014-07-25T02:28:40.961Z,99615
2014-07-25T02:28:59.180Z,99615
2014-07-25T02:29:17.416Z,99621
2014-07-25T02:29:35.635Z,99604
2014-07-25T02:29:53.900Z,99607
2014-07-25T02:30:12.121Z,99607
2014-07-25T02:30:30.340Z,99612
2014-07-25T02:30:48.559Z,99615
2014-07-25T02:31:06.793Z,99612
2014-07-25T02:31:24.982Z,99621
2014-07-25T02:31:43.232Z,99601
2014-07-25T02:32:01.419Z,99612
2014-07-25T02:32:19.656Z,99609
2014-07-25T02:32:37.891Z,99607
2014-07-25T02:32:56.110Z,99609
2014-07-25T02:33:14.377Z,99607
2014-07-25T02:33:32.596Z,99609
2014-07-25T02:33:50.783Z,99607
2014-07-25T02:34:09.049Z,99612
2014-07-25T02:34:27.270Z,99618
2014-07-25T02:34:45.504Z,99604
2014-07-25T02:35:03.707Z,99615
2014-07-25T02:35:21.958Z,99612
2014-07-25T02:35:40.177Z,99618
2014-07-25T02:35:58.427Z,99612
2014-07-25T02:36:16.664Z,99612
2014-07-25T02:36:34.883Z,99615
2014-07-25T02:36:53.133Z,99609
2014-07-25T02:37:11.336Z,99624
2014-07-25T02:37:29.573Z,99615
2014-07-25T02:37:47.854Z,99612
2014-07-25T02:38:06.073Z,99612
2014-07-25T02:38:39.214Z,99621
2014-07-25T02:38:57.417Z,99612
2014-07-25T02:39:15.638Z,99621
2014-07-25T02:39:33.873Z,99612
2014-07-25T02:39:52.123Z,99618
2014-07-25T02:40:10.326Z,99612
2014-07-25T02:40:28.547Z,99609
2014-07-25T02:40:46.782Z,99609
2014-07-25T02:41:05.016Z,99612
2014-07-25T02:41:37.392Z,99604
2014-07-25T02:41:55.627Z,99612
2014-07-25T02:42:13.814Z,99615
2014-07-25T02:42:32.051Z,99618
2014-07-25T02:42:50.395Z,99621
2014-07-25T02:43:08.630Z,99615
2014-07-25T02:43:26.834Z,99607
2014-07-25T02:43:45.068Z,99615
2014-07-25T02:44:03.271Z,99609
2014-07-25T02:44:21.523Z,99621
2014-07-25T02:44:39.742Z,99615
2014-07-25T02:44:57.961Z,99612
2014-07-25T02:45:16.195Z,99612
2014-07-25T02:45:34.431Z,99612
2014-07-25T02:45:52.650Z,99604
2014-07-25T02:46:10.838Z,99610
2014-07-25T02:46:29.058Z,99612
2014-07-25T02:46:47.324Z,99618
2014-07-25T02:47:05.543Z,99601
2014-07-25T02:47:23.748Z,99607
2014-07-25T02:47:41.982Z,99612
2014-07-25T02:48:00.217Z,99607
2014-07-25T02:48:18.435Z,99607
2014-07-25T02:48:36.672Z,99612
2014-07-25T02:48:54.906Z,99607
2014-07-25T02:49:13.187Z,99609
2014-07-25T02:49:31.407Z,99607
2014-07-25T02:49:49.610Z,99609
2014-07-25T02:50:07.829Z,99607
2014-07-25T02:50:26.097Z,99612
2014-07-25T02:50:44.315Z,99612
2014-07-25T02:51:02.519Z,99604
2014-07-25T02:51:20.740Z,99607
2014-07-25T02:51:38.975Z,99607
2014-07-25T02:51:57.193Z,99607
2014-07-25T02:52:15.412Z,99604
2014-07-25T02:52:33.633Z,99609
2014-07-25T02:52:51.883Z,99607
2014-07-25T02:53:10.164Z,99604
2014-07-25T02:53:28.401Z,99607
2014-07-25T02:53:46.619Z,99601
2014-07-25T02:54:04.854Z,99601
2014-07-25T02:54:23.090Z,99607
2014-07-25T02:54:41.324Z,99609
2014-07-25T02:54:59.528Z,99609
2014-07-25T02:55:17.793Z,99607
2014-07-25T02:55:35.998Z,99607
2014-07-25T02:55:54.201Z,99609
2014-07-25T02:56:12.420Z,99595
2014-07-25T02:56:30.671Z,99607
2014-07-25T02:56:48.874Z,99607
2014-07-25T02:57:07.093Z,99612
2014-07-25T02:57:25.329Z,99601
2014-07-25T02:57:43.564Z,99609
2014-07-25T02:58:01.798Z,99598
2014-07-25T02:58:20.017Z,99601
2014-07-25T02:58:38.269Z,99615
2014-07-25T02:58:56.550Z,99609
2014-07-25T02:59:14.785Z,99604
2014-07-25T02:59:33.021Z,99604
2014-07-25T02:59:51.255Z,99601
2014-07-25T03:00:09.443Z,99612
2014-07-25T03:00:27.679Z,99604
2014-07-25T03:00:45.929Z,99607
2014-07-25T03:01:04.164Z,99604
2014-07-25T03:01:22.398Z,99609
2014-07-25T03:01:40.666Z,99601
2014-07-25T03:01:58.869Z,99598
2014-07-25T03:02:17.087Z,99609
2014-07-25T03:02:35.308Z,99612
2014-07-25T03:02:53.527Z,99601
2014-07-25T03:03:11.777Z,99609
2014-07-25T03:03:29.982Z,99610
2014-07-25T03:03:48.232Z,99601
2014-07-25T03:04:06.435Z,99607
2014-07-25T03:04:24.670Z,99601
2014-07-25T03:04:42.906Z,99598
2014-07-25T03:05:01.125Z,99601
2014-07-25T03:05:19.328Z,99607
2014-07-25T03:05:37.549Z,99601
2014-07-25T03:05:55.814Z,99604
2014-07-25T03:06:14.064Z,99607
2014-07-25T03:06:32.301Z,99607
2014-07-25T03:06:50.519Z,99598
2014-07-25T03:07:08.722Z,99604
2014-07-25T03:07:26.972Z,99601
2014-07-25T03:07:45.162Z,99610
2014-07-25T03:08:03.412Z,99595
2014-07-25T03:08:21.646Z,99604
2014-07-25T03:08:39.836Z,99601
2014-07-25T03:08:58.086Z,99595
2014-07-25T03:09:16.320Z,99598
2014-07-25T03:09:34.557Z,99598
2014-07-25T03:09:52.775Z,99595
2014-07-25T03:10:10.963Z,99598
2014-07-25T03:10:29.182Z,99601
2014-07-25T03:10:47.417Z,99589
2014-07-25T03:11:05.667Z,99595
2014-07-25T03:11:23.870Z,99595
2014-07-25T03:11:42.138Z,99598
2014-07-25T03:12:00.372Z,99598
2014-07-25T03:12:18.575Z,99583
2014-07-25T03:12:36.796Z,99592
2014-07-25T03:12:55.030Z,99583
2014-07-25T03:13:13.280Z,99595
2014-07-25T03:13:31.483Z,99598
2014-07-25T03:13:49.721Z,99598
2014-07-25T03:14:07.940Z,99595
2014-07-25T03:14:26.174Z,99598
2014-07-25T03:14:44.395Z,99589
2014-07-25T03:15:02.598Z,99589
2014-07-25T03:15:20.848Z,99583
2014-07-25T03:15:39.052Z,99592
2014-07-25T03:15:57.286Z,99589
2014-07-25T03:16:15.505Z,99595
2014-07-25T03:16:33.739Z,99592
2014-07-25T03:16:51.976Z,99580
2014-07-25T03:17:10.163Z,99589
2014-07-25T03:17:28.382Z,99592
2014-07-25T03:17:46.634Z,99580
2014-07-25T03:18:04.868Z,99592
2014-07-25T03:18:23.087Z,99586
2014-07-25T03:18:41.339Z,99592
2014-07-25T03:18:59.574Z,99595
2014-07-25T03:19:17.792Z,99592
2014-07-25T03:19:35.995Z,99586
2014-07-25T03:20:08.404Z,99595
2014-07-25T03:20:26.638Z,99592
2014-07-25T03:20:44.859Z,99589
2014-07-25T03:21:03.093Z,99586
2014-07-25T03:21:21.312Z,99595
2014-07-25T03:21:39.515Z,99586
2014-07-25T03:21:57.751Z,99589
2014-07-25T03:22:16.001Z,99580
2014-07-25T03:22:34.205Z,99589
2014-07-25T03:22:52.441Z,99583
2014-07-25T03:23:10.691Z,99592
2014-07-25T03:23:28.894Z,99586
2014-07-25T03:23:47.099Z,99586
2014-07-25T03:24:05.318Z,99589
2014-07-25T03:24:23.584Z,99595
2014-07-25T03:24:41.802Z,99578
2014-07-25T03:25:00.007Z,99598
2014-07-25T03:25:18.242Z,99583
2014-07-25T03:25:36.461Z,99578
2014-07-25T03:25:54.666Z,99586
2014-07-25T03:26:12.931Z,99586
2014-07-25T03:26:31.150Z,99592
2014-07-25T03:26:49.371Z,99580
2014-07-25T03:27:07.574Z,99583
2014-07-25T03:27:25.793Z,99586
2014-07-25T03:27:44.027Z,99586
2014-07-25T03:28:02.263Z,99595
2014-07-25T03:28:20.482Z,99589
2014-07-25T03:28:38.717Z,99589
2014-07-25T03:28:56.936Z,99592
2014-07-25T03:29:15.139Z,99583
2014-07-25T03:29:33.374Z,99589
2014-07-25T03:29:51.595Z,99592
2014-07-25T03:30:09.813Z,99595
2014-07-25T03:30:28.032Z,99589
2014-07-25T03:30:46.282Z,99586
2014-07-25T03:31:04.488Z,99583
2014-07-25T03:31:22.738Z,99589
2014-07-25T03:31:40.941Z,99586
2014-07-25T03:31:59.161Z,99580
2014-07-25T03:32:17.411Z,99586
2014-07-25T03:32:35.614Z,99578
2014-07-25T03:32:53.866Z,99586
2014-07-25T03:33:12.101Z,99583
2014-07-25T03:33:30.319Z,99586
2014-07-25T03:33:48.585Z,99583
2014-07-25T03:34:06.806Z,99583
2014-07-25T03:34:25.024Z,99589
2014-07-25T03:34:43.243Z,99580
2014-07-25T03:35:01.480Z,99583
2014-07-25T03:35:19.683Z,99583
2014-07-25T03:35:37.901Z,99578
2014-07-25T03:35:56.153Z,99580
2014-07-25T03:36:14.388Z,99583
2014-07-25T03:36:32.607Z,99586
2014-07-25T03:36:50.794Z,99583
2014-07-25T03:37:09.046Z,99583
2014-07-25T03:37:27.265Z,99580
2014-07-25T03:37:45.468Z,99580
2014-07-25T03:38:03.689Z,99572
2014-07-25T03:38:21.970Z,99583
2014-07-25T03:38:40.220Z,99578
2014-07-25T03:38:58.409Z,99583
2014-07-25T03:39:16.659Z,99580
2014-07-25T03:39:34.878Z,99589
2014-07-25T03:39:53.113Z,99575
2014-07-25T03:40:11.318Z,99583
2014-07-25T03:40:29.536Z,99580
2014-07-25T03:40:47.802Z,99572
2014-07-25T03:41:06.023Z,99586
2014-07-25T03:41:24.226Z,99583
2014-07-25T03:41:42.445Z,99583
2014-07-25T03:42:00.665Z,99578
2014-07-25T03:42:18.931Z,99578
2014-07-25T03:42:37.150Z,99580
2014-07-25T03:42:55.353Z,99578
2014-07-25T03:43:13.588Z,99572
2014-07-25T03:43:31.854Z,99580
2014-07-25T03:43:50.073Z,99580
2014-07-25T03:44:08.294Z,99583
2014-07-25T03:44:26.529Z,99572
2014-07-25T03:44:44.763Z,99580
2014-07-25T03:45:02.968Z,99580
2014-07-25T03:45:21.203Z,99589
2014-07-25T03:45:39.421Z,99580
2014-07-25T03:45:57.656Z,99583
2014-07-25T03:46:15.907Z,99575
2014-07-25T03:46:34.126Z,99589
2014-07-25T03:46:52.344Z,99583
2014-07-25T03:47:10.596Z,99572
2014-07-25T03:47:28.815Z,99580
2014-07-25T03:47:47.034Z,99583
2014-07-25T03:48:05.271Z,99575
2014-07-25T03:48:23.506Z,99575
2014-07-25T03:48:41.740Z,99583
2014-07-25T03:49:32.320Z,99572
2014-07-25T03:49:50.554Z,99572
2014-07-25T03:50:08.806Z,99578
2014-07-25T03:50:27.025Z,99578
2014-07-25T03:50:45.228Z,99578
2014-07-25T03:51:03.463Z,99572
2014-07-25T03:51:21.667Z,99572
2014-07-25T03:51:39.917Z,99583
2014-07-25T03:51:58.136Z,99575
2014-07-25T03:52:16.342Z,99572
2014-07-25T03:52:34.592Z,99572
2014-07-25T03:52:52.810Z,99575
2014-07-25T03:53:11.030Z,99572
2014-07-25T03:53:29.280Z,99569
2014-07-25T03:53:47.515Z,99569
2014-07-25T03:54:05.749Z,99569
2014-07-25T03:54:23.970Z,99575
2014-07-25T03:54:42.235Z,99578
2014-07-25T03:55:00.438Z,99572
2014-07-25T03:55:18.675Z,99566
2014-07-25T03:55:36.894Z,99578
2014-07-25T03:55:55.097Z,99580
2014-07-25T03:56:13.317Z,99569
2014-07-25T03:56:31.536Z,99572
2014-07-25T03:56:49.786Z,99575
2014-07-25T03:57:08.005Z,99578
2014-07-25T03:57:26.226Z,99572
2014-07-25T03:57:44.460Z,99580
2014-07-25T03:58:02.694Z,99580
2014-07-25T03:58:20.915Z,99575
2014-07-25T03:58:39.118Z,99572
2014-07-25T03:58:57.368Z,99566
2014-07-25T03:59:15.573Z,99572
2014-07-25T03:59:33.792Z,99572
2014-07-25T03:59:52.027Z,99572
2014-07-25T04:00:10.245Z,99572
2014-07-25T04:00:28.560Z,99572
2014-07-25T04:00:46.747Z,99580